createdAt,value
2023-02-19T00:01:08.794Z,1.90
2023-02-19T00:03:36.245Z,1.60
2023-02-19T00:06:04.131Z,1.83
2023-02-19T00:08:32.177Z,1.85
2023-02-19T00:11:03.522Z,2.20
2023-02-19T00:13:30.935Z,2.28
2023-02-19T00:16:05.020Z,2.20
2023-02-19T00:18:32.247Z,2.20
2023-02-19T00:20:59.413Z,1.83
2023-02-19T00:23:27.944Z,2.10
2023-02-19T00:25:55.422Z,2.33
2023-02-19T00:28:23.021Z,2.13
2023-02-19T00:30:50.319Z,1.98
2023-02-19T00:33:18.881Z,1.92
2023-02-19T00:35:46.064Z,1.93
2023-02-19T00:38:13.272Z,2.08
2023-02-19T00:40:40.466Z,1.73
2023-02-19T00:43:07.680Z,1.88
2023-02-19T00:45:35.663Z,2.08
2023-02-19T00:48:02.955Z,2.20
2023-02-19T00:50:31.472Z,2.03
2023-02-19T00:52:58.654Z,2.08
2023-02-19T00:55:25.831Z,2.10
2023-02-19T00:57:53.027Z,2.33
2023-02-19T01:00:20.836Z,2.30
2023-02-19T01:02:48.012Z,3.20
2023-02-19T01:05:15.289Z,2.83
2023-02-19T01:07:43.858Z,2.63
2023-02-19T01:10:11.068Z,2.67
2023-02-19T01:12:38.226Z,2.60
2023-02-19T01:15:05.868Z,3.10
2023-02-19T01:17:35.627Z,3.20
2023-02-19T01:20:03.030Z,3.00
2023-02-19T01:22:30.258Z,3.28
2023-02-19T01:24:58.897Z,2.93
2023-02-19T01:27:26.055Z,3.53
2023-02-19T01:29:53.646Z,3.22
2023-02-19T01:32:20.878Z,3.15
2023-02-19T01:34:48.073Z,3.40
2023-02-19T01:37:15.319Z,3.50
2023-02-19T01:39:42.558Z,3.38
2023-02-19T01:42:15.213Z,3.58
2023-02-19T01:45:18.662Z,2.85
2023-02-19T01:47:46.545Z,2.80
2023-02-19T01:50:13.797Z,2.87
2023-02-19T01:52:41.399Z,2.50
2023-02-19T01:55:12.561Z,2.83
2023-02-19T01:57:44.708Z,2.53
2023-02-19T02:00:15.266Z,2.35
2023-02-19T02:02:46.396Z,2.60
2023-02-19T02:05:19.547Z,2.80
2023-02-19T02:08:05.446Z,2.70
2023-02-19T02:10:33.564Z,2.75
2023-02-19T02:13:02.779Z,2.67
2023-02-19T02:15:39.972Z,2.40
2023-02-19T02:18:18.823Z,2.17
2023-02-19T02:21:03.392Z,2.70
2023-02-19T02:23:44.279Z,2.40
2023-02-19T02:26:38.177Z,2.65
2023-02-19T02:29:37.399Z,2.77
2023-02-19T02:32:10.298Z,2.70
2023-02-19T02:34:45.616Z,2.65
2023-02-19T02:37:14.472Z,2.80
2023-02-19T02:39:42.683Z,3.30
2023-02-19T02:42:28.302Z,3.30
2023-02-19T02:45:37.220Z,2.97
2023-02-19T02:48:30.091Z,3.95
2023-02-19T02:51:02.551Z,3.90
2023-02-19T02:53:56.888Z,3.55
2023-02-19T02:56:25.919Z,3.70
2023-02-19T02:58:54.844Z,3.30
2023-02-19T03:01:44.443Z,2.97
2023-02-19T03:04:21.791Z,3.10
2023-02-19T03:06:50.598Z,2.80
2023-02-19T03:09:21.933Z,2.70
2023-02-19T03:12:10.882Z,2.90
2023-02-19T03:15:02.365Z,2.55
2023-02-19T03:17:55.633Z,2.70
2023-02-19T03:20:25.769Z,2.80
2023-02-19T03:22:55.871Z,2.60
2023-02-19T03:25:45.421Z,2.83
2023-02-19T03:28:18.238Z,3.10
2023-02-19T03:30:50.280Z,3.00
2023-02-19T03:33:20.055Z,2.67
2023-02-19T03:35:53.529Z,2.90
2023-02-19T03:38:28.806Z,2.88
2023-02-19T03:41:03.146Z,2.80
2023-02-19T03:43:38.178Z,2.63
2023-02-19T03:46:11.504Z,2.50
2023-02-19T03:48:46.432Z,2.70
2023-02-19T03:51:27.612Z,2.13
2023-02-19T03:54:08.839Z,1.95
2023-02-19T03:56:42.836Z,1.98
2023-02-19T03:59:14.287Z,1.85
2023-02-19T04:01:45.256Z,1.70
2023-02-19T04:04:18.902Z,1.48
2023-02-19T04:06:53.848Z,1.90
2023-02-19T04:09:22.845Z,1.52
2023-02-19T04:11:58.889Z,1.63
2023-02-19T04:14:30.710Z,1.27
2023-02-19T04:17:01.596Z,1.48
2023-02-19T04:19:32.896Z,1.83
2023-02-19T04:22:02.239Z,1.50
2023-02-19T04:24:33.455Z,1.70
2023-02-19T04:27:01.115Z,1.60
2023-02-19T04:29:28.303Z,1.70
2023-02-19T04:31:55.589Z,1.77
2023-02-19T04:34:22.815Z,1.73
2023-02-19T04:36:49.995Z,1.40
2023-02-19T04:39:18.534Z,1.60
2023-02-19T04:41:45.728Z,1.20
2023-02-19T04:44:12.909Z,1.10
2023-02-19T04:46:42.729Z,1.33
2023-02-19T04:49:10.450Z,1.30
2023-02-19T04:51:38.501Z,1.20
2023-02-19T04:54:05.809Z,1.10
2023-02-19T04:56:34.324Z,1.05
2023-02-19T04:59:01.552Z,1.30
2023-02-19T05:01:29.131Z,1.30
2023-02-19T05:03:56.373Z,1.40
2023-02-19T05:06:23.642Z,1.65
2023-02-19T05:08:50.833Z,1.33
2023-02-19T05:11:18.111Z,1.48
2023-02-19T05:13:46.652Z,1.55
2023-02-19T05:16:16.066Z,1.60
2023-02-19T05:18:45.207Z,1.60
2023-02-19T05:21:13.203Z,1.65
2023-02-19T05:23:41.040Z,1.58
2023-02-19T05:26:09.996Z,1.65
2023-02-19T05:28:37.200Z,1.93
2023-02-19T05:31:08.079Z,1.90
2023-02-19T05:33:35.557Z,1.67
2023-02-19T05:36:07.570Z,1.73
2023-02-19T05:38:35.076Z,1.67
2023-02-19T05:41:10.993Z,1.70
2023-02-19T05:43:38.550Z,1.77
2023-02-19T05:46:07.866Z,1.40
2023-02-19T05:48:35.317Z,1.80
2023-02-19T05:51:03.290Z,1.60
2023-02-19T05:53:30.586Z,1.50
2023-02-19T05:55:58.243Z,1.50
2023-02-19T05:58:25.850Z,1.70
2023-02-19T06:00:53.342Z,1.75
2023-02-19T06:03:22.161Z,1.60
2023-02-19T06:05:49.428Z,1.87
2023-02-19T06:08:16.633Z,1.85
2023-02-19T06:10:43.859Z,1.98
2023-02-19T06:13:11.368Z,1.65
2023-02-19T06:15:38.585Z,1.60
2023-02-19T06:18:05.856Z,1.67
2023-02-19T06:20:34.360Z,1.60
2023-02-19T06:23:01.595Z,1.40
2023-02-19T06:25:28.795Z,1.70
2023-02-19T06:27:56.037Z,1.55
2023-02-19T06:30:23.333Z,1.53
2023-02-19T06:32:52.240Z,1.50
2023-02-19T06:35:19.851Z,1.50
2023-02-19T06:37:49.122Z,1.25
2023-02-19T06:40:16.974Z,1.58
2023-02-19T06:42:44.204Z,1.60
2023-02-19T06:45:11.416Z,1.20
2023-02-19T06:47:38.744Z,1.60
2023-02-19T06:50:06.391Z,1.40
2023-02-19T06:52:33.621Z,1.70
2023-02-19T06:55:02.166Z,1.70
2023-02-19T06:57:29.370Z,1.55
2023-02-19T06:59:56.670Z,1.70
2023-02-19T07:02:23.898Z,1.65
2023-02-19T07:04:51.114Z,1.45
2023-02-19T07:07:18.290Z,2.10
2023-02-19T07:09:45.460Z,1.77
2023-02-19T07:12:13.967Z,1.60
2023-02-19T07:14:41.157Z,1.67
2023-02-19T07:17:08.378Z,1.55
2023-02-19T07:19:35.553Z,1.50
2023-02-19T07:22:02.747Z,1.10
2023-02-19T07:24:29.947Z,1.40
2023-02-19T07:26:57.130Z,1.40
2023-02-19T07:29:25.638Z,1.40
2023-02-19T07:31:52.847Z,1.37
2023-02-19T07:34:20.780Z,1.50
2023-02-19T07:36:47.959Z,2.92
2023-02-19T07:39:15.857Z,1.83
2023-02-19T07:41:43.032Z,1.90
2023-02-19T07:44:13.455Z,2.00
2023-02-19T07:46:42.043Z,2.03
2023-02-19T07:49:09.409Z,2.45
2023-02-19T07:51:39.754Z,1.90
2023-02-19T07:54:08.039Z,2.35
2023-02-19T07:56:35.220Z,1.97
2023-02-19T07:59:02.428Z,2.03
2023-02-19T08:01:48.535Z,2.08
2023-02-19T08:04:17.066Z,2.40
2023-02-19T08:06:44.288Z,2.33
2023-02-19T08:09:11.625Z,1.80
2023-02-19T08:11:57.697Z,1.90
2023-02-19T08:14:25.712Z,1.83
2023-02-19T08:16:53.597Z,2.22
2023-02-19T08:19:22.477Z,1.73
2023-02-19T08:21:50.582Z,2.40
2023-02-19T08:24:17.788Z,4.07
2023-02-19T08:26:44.995Z,2.80
2023-02-19T08:29:12.176Z,1.90
2023-02-19T08:31:39.559Z,2.08
2023-02-19T08:34:06.953Z,1.90
2023-02-19T08:36:35.511Z,1.80
2023-02-19T08:39:02.773Z,1.65
2023-02-19T08:41:29.983Z,2.10
2023-02-19T08:43:57.220Z,1.63
2023-02-19T08:46:24.510Z,1.90
2023-02-19T08:48:52.166Z,2.22
2023-02-19T08:51:19.422Z,1.80
2023-02-19T08:53:48.067Z,1.98
2023-02-19T08:56:17.297Z,1.90
2023-02-19T08:58:45.181Z,1.77
2023-02-19T09:01:14.641Z,1.50
2023-02-19T09:03:42.596Z,1.10
2023-02-19T09:06:14.798Z,1.38
2023-02-19T09:08:42.005Z,1.23
2023-02-19T09:11:10.882Z,1.37
2023-02-19T09:13:38.213Z,1.42
2023-02-19T09:16:05.934Z,1.17
2023-02-19T09:18:33.241Z,1.45
2023-02-19T09:21:01.757Z,1.23
2023-02-19T09:23:29.392Z,1.20
2023-02-19T09:26:00.277Z,1.48
2023-02-19T09:28:28.849Z,1.50
2023-02-19T09:30:56.111Z,1.33
2023-02-19T09:33:23.380Z,1.48
2023-02-19T09:35:50.558Z,1.30
2023-02-19T09:38:17.739Z,1.50
2023-02-19T09:40:45.241Z,1.20
2023-02-19T09:43:17.432Z,1.42
2023-02-19T09:45:46.595Z,0.95
2023-02-19T09:48:13.804Z,1.30
2023-02-19T09:50:45.733Z,1.08
2023-02-19T09:53:17.272Z,1.50
2023-02-19T09:55:44.980Z,1.55
2023-02-19T09:58:25.634Z,1.10
2023-02-19T10:00:56.078Z,1.17
2023-02-19T10:03:30.543Z,1.30
2023-02-19T10:05:59.758Z,1.30
2023-02-19T10:08:27.042Z,1.30
2023-02-19T10:10:54.830Z,1.40
2023-02-19T10:13:24.038Z,1.03
2023-02-19T10:15:54.250Z,1.58
2023-02-19T10:18:25.658Z,1.55
2023-02-19T10:20:53.296Z,1.33
2023-02-19T10:23:20.823Z,1.33
2023-02-19T10:25:51.521Z,1.23
2023-02-19T10:28:22.417Z,1.50
2023-02-19T10:30:54.121Z,1.10
2023-02-19T10:33:23.202Z,1.40
2023-02-19T10:35:54.881Z,1.25
2023-02-19T10:38:26.022Z,1.17
2023-02-19T10:41:02.730Z,1.08
2023-02-19T10:43:33.842Z,1.50
2023-02-19T10:46:04.737Z,1.25
2023-02-19T10:48:36.591Z,1.08
2023-02-19T10:51:08.168Z,1.60
2023-02-19T10:53:46.770Z,1.75
2023-02-19T10:56:16.568Z,1.55
2023-02-19T10:58:44.941Z,1.77
2023-02-19T11:01:15.657Z,1.20
2023-02-19T11:03:44.775Z,1.43
2023-02-19T11:06:14.257Z,1.10
2023-02-19T11:08:54.194Z,1.50
2023-02-19T11:11:37.352Z,1.63
2023-02-19T11:14:12.710Z,1.45
2023-02-19T11:16:43.476Z,1.27
2023-02-19T11:19:31.287Z,1.10
2023-02-19T11:21:59.209Z,1.00
2023-02-19T11:24:30.871Z,1.10
2023-02-19T11:26:59.572Z,1.38
2023-02-19T11:29:28.776Z,1.10
2023-02-19T11:31:56.607Z,0.77
2023-02-19T11:34:30.020Z,0.93
2023-02-19T11:37:12.026Z,0.95
2023-02-19T11:39:42.159Z,1.00
2023-02-19T11:42:33.498Z,1.13
2023-02-19T11:45:13.086Z,1.00
2023-02-19T11:48:09.044Z,1.02
2023-02-19T11:50:48.410Z,1.05
2023-02-19T11:53:22.288Z,1.00
2023-02-19T11:55:59.008Z,1.07
2023-02-19T11:58:48.775Z,1.77
2023-02-19T12:01:24.002Z,1.25
2023-02-19T12:04:08.544Z,1.00
2023-02-19T12:06:47.604Z,1.40
2023-02-19T12:09:36.914Z,1.30
2023-02-19T12:12:21.580Z,1.10
2023-02-19T12:15:12.935Z,1.10
2023-02-19T12:18:06.477Z,1.10
2023-02-19T12:20:40.028Z,1.20
2023-02-19T12:23:43.749Z,1.40
2023-02-19T12:26:22.065Z,1.23
2023-02-19T12:29:12.108Z,1.50
2023-02-19T12:32:06.498Z,1.20
2023-02-19T12:34:46.053Z,1.17
2023-02-19T12:37:25.338Z,1.53
2023-02-19T12:40:02.747Z,1.00
2023-02-19T12:42:44.744Z,1.63
2023-02-19T12:45:20.145Z,1.30
2023-02-19T12:48:00.268Z,1.35
2023-02-19T12:50:28.691Z,1.10
2023-02-19T12:53:02.085Z,0.90
2023-02-19T12:55:35.600Z,1.00
2023-02-19T12:58:05.514Z,1.40
2023-02-19T13:00:39.537Z,0.88
2023-02-19T13:03:16.509Z,1.10
2023-02-19T13:05:49.833Z,1.30
2023-02-19T13:08:23.668Z,1.35
2023-02-19T13:10:58.247Z,1.27
2023-02-19T13:13:29.206Z,1.10
2023-02-19T13:16:01.611Z,1.10
2023-02-19T13:18:36.922Z,1.10
2023-02-19T13:21:06.193Z,1.25
2023-02-19T13:23:55.245Z,0.90
2023-02-19T13:26:38.703Z,1.20
2023-02-19T13:29:17.732Z,1.07
2023-02-19T13:32:05.566Z,1.00
2023-02-19T13:34:45.455Z,1.15
2023-02-19T13:37:12.768Z,0.80
2023-02-19T13:39:48.582Z,0.80
2023-02-19T13:42:25.658Z,0.80
2023-02-19T13:44:57.717Z,0.70
2023-02-19T13:47:46.163Z,0.80
2023-02-19T13:50:20.564Z,0.70
2023-02-19T13:52:47.853Z,0.88
2023-02-19T13:55:46.663Z,1.03
2023-02-19T13:58:38.939Z,0.82
2023-02-19T14:01:07.589Z,0.95
2023-02-19T14:03:47.691Z,1.23
2023-02-19T14:06:14.947Z,0.80
2023-02-19T14:08:55.936Z,0.57
2023-02-19T14:12:00.671Z,1.00
2023-02-19T14:14:35.292Z,0.80
2023-02-19T14:17:05.642Z,1.00
2023-02-19T14:19:48.988Z,0.93
2023-02-19T14:22:56.944Z,0.90
2023-02-19T14:25:46.144Z,0.90
2023-02-19T14:28:19.132Z,0.93
2023-02-19T14:30:51.082Z,1.10
2023-02-19T14:33:21.725Z,0.77
2023-02-19T14:35:53.428Z,1.00
2023-02-19T14:38:25.170Z,0.85
2023-02-19T14:40:54.134Z,0.73
2023-02-19T14:43:24.772Z,0.68
2023-02-19T14:45:56.879Z,0.80
2023-02-19T14:48:28.823Z,1.00
2023-02-19T14:51:03.157Z,1.10
2023-02-19T14:53:35.182Z,0.90
2023-02-19T14:56:03.619Z,1.02
2023-02-19T14:58:33.216Z,1.17
2023-02-19T15:01:01.787Z,0.90
2023-02-19T15:03:34.716Z,1.23
2023-02-19T15:06:05.946Z,1.20
2023-02-19T15:08:37.916Z,1.10
2023-02-19T15:11:11.128Z,1.30
2023-02-19T15:13:45.394Z,1.20
2023-02-19T15:16:18.682Z,1.80
2023-02-19T15:18:46.958Z,1.33
2023-02-19T15:21:23.413Z,1.40
2023-02-19T15:23:51.712Z,2.30
2023-02-19T15:26:22.169Z,1.30
2023-02-19T15:28:58.676Z,1.10
2023-02-19T15:31:27.479Z,0.80
2023-02-19T15:33:55.362Z,1.00
2023-02-19T15:36:27.616Z,1.02
2023-02-19T15:38:57.830Z,1.30
2023-02-19T15:41:28.652Z,1.02
2023-02-19T15:44:01.938Z,1.15
2023-02-19T15:46:30.980Z,1.00
2023-02-19T15:49:03.320Z,0.90
2023-02-19T15:51:34.889Z,0.83
2023-02-19T15:54:09.931Z,0.70
2023-02-19T15:56:40.030Z,1.00
2023-02-19T15:59:16.291Z,0.98
2023-02-19T16:01:45.201Z,1.00
2023-02-19T16:04:14.608Z,1.40
2023-02-19T16:06:55.973Z,1.40
2023-02-19T16:09:30.780Z,1.38
2023-02-19T16:11:59.738Z,1.80
2023-02-19T16:14:31.404Z,1.50
2023-02-19T16:17:07.535Z,1.80
2023-02-19T16:19:45.095Z,1.50
2023-02-19T16:22:14.440Z,1.60
2023-02-19T16:24:45.383Z,1.52
2023-02-19T16:27:13.894Z,1.17
2023-02-19T16:29:41.429Z,1.20
2023-02-19T16:32:16.989Z,1.23
2023-02-19T16:34:46.858Z,1.20
2023-02-19T16:37:35.073Z,1.00
2023-02-19T16:40:54.178Z,1.13
2023-02-19T16:43:31.384Z,1.20
2023-02-19T16:45:59.573Z,1.30
2023-02-19T16:48:29.167Z,1.38
2023-02-19T16:50:56.616Z,1.33
2023-02-19T16:53:25.235Z,1.45
2023-02-19T16:55:52.557Z,1.40
2023-02-19T16:58:20.036Z,1.23
2023-02-19T17:00:47.429Z,1.50
2023-02-19T17:03:18.164Z,1.88
2023-02-19T17:05:46.874Z,2.17
2023-02-19T17:08:28.826Z,2.77
2023-02-19T17:10:56.326Z,2.88
2023-02-19T17:13:23.841Z,3.58
2023-02-19T17:15:51.043Z,5.20
2023-02-19T17:18:18.440Z,5.18
2023-02-19T17:20:51.527Z,4.70
2023-02-19T17:23:18.737Z,3.47
2023-02-19T17:25:45.946Z,4.43
2023-02-19T17:28:13.141Z,4.50
2023-02-19T17:30:40.619Z,4.10
2023-02-19T17:33:07.945Z,3.13
2023-02-19T17:35:35.229Z,3.35
2023-02-19T17:38:09.419Z,3.10
2023-02-19T17:40:37.287Z,2.90
2023-02-19T17:43:04.820Z,2.92
2023-02-19T17:45:32.497Z,3.50
2023-02-19T17:48:00.058Z,2.05
2023-02-19T17:50:29.321Z,2.92
2023-02-19T17:52:56.759Z,3.50
2023-02-19T17:55:25.853Z,2.30
2023-02-19T17:57:53.597Z,2.47
2023-02-19T18:00:22.774Z,2.45
2023-02-19T18:02:50.165Z,2.28
2023-02-19T18:05:18.174Z,2.70
2023-02-19T18:07:45.991Z,2.63
2023-02-19T18:10:14.758Z,2.40
2023-02-19T18:12:43.594Z,2.50
2023-02-19T18:15:16.115Z,2.58
2023-02-19T18:17:43.378Z,2.70
2023-02-19T18:20:18.615Z,2.97
2023-02-19T18:22:45.926Z,3.40
2023-02-19T18:25:13.491Z,3.08
2023-02-19T18:27:40.766Z,3.22
2023-02-19T18:30:10.309Z,2.85
2023-02-19T18:32:37.859Z,3.63
2023-02-19T18:35:05.871Z,3.43
2023-02-19T18:37:33.895Z,3.28
2023-02-19T18:40:01.743Z,3.20
2023-02-19T18:42:29.182Z,3.25
2023-02-19T18:44:56.473Z,3.25
2023-02-19T18:47:25.555Z,2.97
2023-02-19T18:49:55.013Z,3.38
2023-02-19T18:52:24.805Z,3.25
2023-02-19T18:54:53.436Z,2.92
2023-02-19T18:57:22.444Z,2.92
2023-02-19T18:59:49.950Z,3.03
2023-02-19T19:02:18.289Z,3.72
2023-02-19T19:04:50.867Z,3.47
2023-02-19T19:07:19.600Z,3.60
2023-02-19T19:09:47.338Z,3.28
2023-02-19T19:12:15.481Z,2.90
2023-02-19T19:14:42.911Z,3.08
2023-02-19T19:17:10.475Z,3.20
2023-02-19T19:19:37.818Z,3.17
2023-02-19T19:22:06.359Z,3.05
2023-02-19T19:24:33.537Z,3.20
2023-02-19T19:27:00.807Z,3.53
2023-02-19T19:29:28.291Z,4.15
2023-02-19T19:31:55.569Z,3.58
2023-02-19T19:34:22.963Z,3.63
2023-02-19T19:36:50.138Z,3.47
2023-02-19T19:39:18.677Z,3.25
2023-02-19T19:41:45.920Z,2.90
2023-02-19T19:44:13.245Z,3.08
2023-02-19T19:46:45.466Z,2.65
2023-02-19T19:49:16.598Z,2.43
2023-02-19T19:51:44.229Z,2.95
2023-02-19T19:54:12.362Z,3.05
2023-02-19T19:56:42.280Z,3.13
2023-02-19T19:59:10.623Z,3.35
2023-02-19T20:01:38.382Z,2.83
2023-02-19T20:04:05.960Z,3.70
2023-02-19T20:06:33.275Z,3.72
2023-02-19T20:09:00.692Z,3.33
2023-02-19T20:11:27.979Z,3.17
2023-02-19T20:13:56.606Z,2.80
2023-02-19T20:16:25.186Z,2.80
2023-02-19T20:18:52.388Z,2.47
2023-02-19T20:21:19.904Z,2.70
2023-02-19T20:23:47.189Z,2.45
2023-02-19T20:26:21.733Z,2.30
2023-02-19T20:28:48.897Z,2.80
2023-02-19T20:31:17.894Z,3.03
2023-02-19T20:33:45.217Z,2.80
2023-02-19T20:36:12.450Z,3.05
2023-02-19T20:38:39.793Z,3.43
2023-02-19T20:41:06.978Z,3.13
2023-02-19T20:43:34.374Z,3.10
2023-02-19T20:46:01.835Z,3.53
2023-02-19T20:48:30.344Z,3.50
2023-02-19T20:50:59.505Z,3.40
2023-02-19T20:53:27.166Z,3.50
2023-02-19T20:55:56.034Z,3.53
2023-02-19T20:58:24.069Z,3.53
2023-02-19T21:00:53.465Z,3.70
2023-02-19T21:03:21.360Z,3.80
2023-02-19T21:05:50.007Z,3.75
2023-02-19T21:08:17.390Z,3.38
2023-02-19T21:10:45.827Z,3.35
2023-02-19T21:13:13.635Z,3.42
2023-02-19T21:15:41.005Z,3.50
2023-02-19T21:18:08.311Z,3.50
2023-02-19T21:20:35.491Z,3.67
2023-02-19T21:23:04.258Z,3.83
2023-02-19T21:25:33.064Z,3.60
2023-02-19T21:28:00.363Z,3.30
2023-02-19T21:30:27.587Z,2.58
2023-02-19T21:32:54.791Z,2.97
2023-02-19T21:35:21.983Z,3.28
2023-02-19T21:37:49.233Z,2.97
2023-02-19T21:40:18.127Z,2.67
2023-02-19T21:42:45.388Z,2.63
2023-02-19T21:45:12.626Z,2.55
2023-02-19T21:47:39.812Z,2.70
2023-02-19T21:50:07.940Z,2.92
2023-02-19T21:52:35.237Z,2.40
2023-02-19T21:55:02.453Z,2.75
2023-02-19T21:57:32.300Z,2.85
2023-02-19T21:59:59.521Z,2.78
2023-02-19T22:02:26.736Z,2.42
2023-02-19T22:04:54.720Z,2.43
2023-02-19T22:07:22.241Z,2.05
2023-02-19T22:09:50.111Z,2.05
2023-02-19T22:12:17.575Z,2.22
2023-02-19T22:14:46.311Z,2.47
2023-02-19T22:17:14.185Z,2.40
2023-02-19T22:19:41.443Z,2.10
2023-02-19T22:22:08.705Z,2.17
2023-02-19T22:24:36.065Z,2.15
2023-02-19T22:27:03.735Z,2.53
2023-02-19T22:29:31.190Z,2.50
2023-02-19T22:31:59.819Z,2.33
2023-02-19T22:34:27.048Z,2.30
2023-02-19T22:36:54.246Z,2.28
2023-02-19T22:39:23.224Z,2.45
2023-02-19T22:41:50.935Z,1.90
2023-02-19T22:44:18.572Z,2.17
2023-02-19T22:46:48.338Z,2.28
2023-02-19T22:49:16.953Z,2.38
2023-02-19T22:51:53.262Z,2.10
2023-02-19T22:54:24.866Z,1.93
2023-02-19T22:56:53.059Z,2.40
2023-02-19T22:59:21.156Z,2.35
2023-02-19T23:01:49.729Z,2.03
2023-02-19T23:04:19.847Z,2.35
2023-02-19T23:06:47.107Z,2.53
2023-02-19T23:09:17.180Z,1.98
2023-02-19T23:11:44.565Z,2.20
2023-02-19T23:14:12.146Z,1.92
2023-02-19T23:16:39.427Z,2.30
2023-02-19T23:19:11.279Z,2.10
2023-02-19T23:21:40.541Z,2.08
2023-02-19T23:24:08.076Z,2.33
2023-02-19T23:26:35.579Z,2.30
2023-02-19T23:29:03.208Z,2.17
2023-02-19T23:31:30.559Z,2.27
2023-02-19T23:33:57.836Z,2.30
2023-02-19T23:36:25.055Z,2.30
2023-02-19T23:38:53.615Z,2.17
2023-02-19T23:41:20.788Z,2.53
2023-02-19T23:43:47.997Z,2.27
2023-02-19T23:46:17.327Z,2.50
2023-02-19T23:48:45.927Z,2.13
2023-02-19T23:51:13.927Z,2.33
2023-02-19T23:53:41.272Z,2.30
2023-02-19T23:56:10.070Z,2.13
2023-02-19T23:58:37.337Z,2.28
